Time;durP1;ratioP1;P1;durP2;ratioP2;P2;SDS_P1;SDS_P2;PMS_P1;PMS_P2;Temp;Humidity;BMP_temperature;BMP_pressure;BME280_temperature;BME280_humidity;BME280_pressure;Samples;Min_cycle;Max_cycle;Signal;HPM_P1;HPM_P2
2022/09/26 00:00:34;;;;;;;;;2.00;1.00;;;;;18.25;52.98;-19696.22;4995588;28;45479;-76
2022/09/26 00:02:59;;;;;;;;;0.00;0.00;;;;;18.20;53.47;-19694.88;4996147;28;45324;-76
2022/09/26 00:05:25;;;;;;;;;0.00;0.00;;;;;18.19;52.87;-19694.47;4962002;28;45465;-75
2022/09/26 00:07:50;;;;;;;;;2.00;0.00;;;;;18.19;52.92;-19694.59;4976055;28;46756;-76
2022/09/26 00:10:16;;;;;;;;;2.00;0.00;;;;;18.17;53.25;-19694.06;4994802;28;45346;-75
2022/09/26 00:12:41;;;;;;;;;0.00;0.00;;;;;18.12;52.54;-19692.72;4996060;28;45319;-76
2022/09/26 00:15:07;;;;;;;;;0.00;0.00;;;;;18.22;52.49;-19695.28;4996125;28;45491;-75
2022/09/26 00:17:32;;;;;;;;;0.33;0.33;;;;;18.20;52.81;-19694.88;4995894;28;45345;-76
2022/09/26 00:19:58;;;;;;;;;0.00;0.00;;;;;18.17;52.63;-19694.06;4995686;28;45399;-75
2022/09/26 00:22:23;;;;;;;;;1.00;0.00;;;;;18.17;53.16;-19694.06;4961756;28;45949;-76
2022/09/26 00:24:48;;;;;;;;;2.33;1.00;;;;;18.14;52.65;-19693.41;4996374;28;45483;-75
2022/09/26 00:27:14;;;;;;;;;2.67;0.00;;;;;18.12;52.38;-19692.88;4994265;28;45490;-75
2022/09/26 00:29:39;;;;;;;;;2.00;0.00;;;;;18.13;52.79;-19693.13;4993464;28;45728;-76
2022/09/26 00:32:05;;;;;;;;;1.50;1.00;;;;;18.08;52.90;-19691.78;4982983;28;45447;-75
2022/09/26 00:34:30;;;;;;;;;0.67;0.67;;;;;18.09;52.97;-19692.06;4994757;28;45491;-76
2022/09/26 00:36:55;;;;;;;;;0.00;0.00;;;;;18.06;52.53;-19691.25;4994251;28;46150;-75
2022/09/26 00:39:21;;;;;;;;;0.00;0.00;;;;;18.03;52.90;-19690.31;4995513;28;45420;-76
2022/09/26 00:41:46;;;;;;;;;0.33;0.33;;;;;17.96;52.79;-19688.59;4992934;28;45720;-76
2022/09/26 00:44:33;;;;;;;;;0.00;0.00;;;;;18.01;52.63;-19689.78;4992157;28;45539;-76
2022/09/26 00:47:00;;;;;;;;;0.33;0.33;;;;;18.01;52.58;-19689.78;4993555;28;46207;-76
2022/09/26 00:49:32;;;;;;;;;1.00;1.00;;;;;17.89;53.67;-19686.84;4990404;28;45497;-76
2022/09/26 00:52:04;;;;;;;;;1.00;1.00;;;;;18.01;53.39;-19689.94;4994371;27;45529;-75
2022/09/26 00:54:31;;;;;;;;;0.67;0.67;;;;;18.02;53.42;-19690.06;4993850;28;45492;-76
2022/09/26 00:57:03;;;;;;;;;0.00;0.00;;;;;17.92;53.12;-19687.66;4992952;28;46067;-75
2022/09/26 00:59:37;;;;;;;;;2.00;0.00;;;;;17.98;52.86;-19689.13;4991793;28;45547;-76
2022/09/26 01:02:03;;;;;;;;;0.00;0.00;;;;;17.96;53.19;-19688.59;4989272;28;45563;-76
2022/09/26 01:04:32;;;;;;;;;1.00;1.00;;;;;17.84;52.76;-19685.50;4993673;28;45543;-75
2022/09/26 01:07:02;;;;;;;;;0.00;0.00;;;;;17.92;53.46;-19687.66;4993978;28;45499;-76
2022/09/26 01:09:29;;;;;;;;;0.33;0.33;;;;;17.91;53.36;-19687.25;4995385;28;45379;-76
2022/09/26 01:11:55;;;;;;;;;0.00;0.00;;;;;17.90;53.10;-19686.97;4995158;28;45496;-76
2022/09/26 01:14:21;;;;;;;;;0.00;0.00;;;;;17.92;53.32;-19687.50;4995046;28;45534;-76
2022/09/26 01:16:49;;;;;;;;;1.67;0.00;;;;;17.92;53.07;-19687.66;4995234;28;45338;-76
2022/09/26 01:19:18;;;;;;;;;0.67;0.33;;;;;17.92;53.26;-19687.50;4993856;28;45262;-76
2022/09/26 01:22:23;;;;;;;;;1.00;1.00;;;;;17.88;52.96;-19686.44;4976221;28;45794;-75
2022/09/26 01:25:17;;;;;;;;;0.67;0.67;;;;;17.89;53.11;-19686.72;4994336;28;45408;-76
2022/09/26 01:27:51;;;;;;;;;0.67;0.67;;;;;17.87;52.99;-19686.31;4993750;28;45906;-75
2022/09/26 01:30:25;;;;;;;;;1.00;1.00;;;;;17.87;53.45;-19686.31;4993919;28;45326;-75
2022/09/26 01:33:12;;;;;;;;;0.00;0.00;;;;;17.88;52.84;-19686.56;4991474;28;45347;-76
2022/09/26 01:35:55;;;;;;;;;0.00;0.00;;;;;17.83;52.66;-19685.25;4992562;28;45339;-75
2022/09/26 01:38:36;;;;;;;;;0.00;0.00;;;;;17.83;52.75;-19685.09;4993677;28;46393;-76
2022/09/26 01:41:11;;;;;;;;;1.00;1.00;;;;;17.81;52.74;-19684.72;4988995;28;45443;-75
2022/09/26 01:43:55;;;;;;;;;1.00;1.00;;;;;17.78;52.71;-19683.91;4994952;28;45346;-75
2022/09/26 01:46:28;;;;;;;;;1.00;1.00;;;;;17.77;52.70;-19683.63;4993458;28;45397;-76
2022/09/26 01:49:08;;;;;;;;;0.00;0.00;;;;;17.76;52.66;-19683.38;4988491;28;45528;-75
2022/09/26 01:51:59;;;;;;;;;0.00;0.00;;;;;17.75;52.65;-19683.09;4992298;28;45329;-76
2022/09/26 01:54:49;;;;;;;;;0.00;0.00;;;;;17.76;52.49;-19683.38;4994098;28;45470;-76
2022/09/26 01:57:22;;;;;;;;;0.00;0.00;;;;;17.77;52.58;-19683.63;4994016;28;45642;-76
2022/09/26 01:59:54;;;;;;;;;0.00;0.00;;;;;17.75;52.72;-19683.09;4975704;28;46170;-75
2022/09/26 02:02:26;;;;;;;;;0.33;0.00;;;;;17.68;52.79;-19681.34;4991383;27;45481;-75
2022/09/26 02:05:06;;;;;;;;;0.00;0.00;;;;;17.76;52.53;-19683.22;4991373;28;45428;-75
2022/09/26 02:07:42;;;;;;;;;3.67;1.00;;;;;17.62;52.18;-19679.75;4993569;28;45381;-75
2022/09/26 02:10:33;;;;;;;;;0.67;0.67;;;;;17.69;52.41;-19681.50;4992815;28;45495;-76
2022/09/26 02:13:16;;;;;;;;;0.00;0.00;;;;;17.70;52.83;-19681.91;4994282;28;45395;-75
2022/09/26 02:15:46;;;;;;;;;0.00;0.00;;;;;17.64;53.02;-19680.16;4993742;28;45425;-76
2022/09/26 02:18:17;;;;;;;;;0.00;0.00;;;;;17.68;52.78;-19681.34;4993418;28;45412;-76
2022/09/26 02:20:49;;;;;;;;;0.00;0.00;;;;;17.66;52.97;-19680.81;4991218;28;46397;-75
2022/09/26 02:23:15;;;;;;;;;0.00;0.00;;;;;17.61;53.05;-19679.34;4993223;28;45763;-75
2022/09/26 02:25:40;;;;;;;;;0.00;0.00;;;;;17.65;52.95;-19680.56;4993199;28;45314;-76
2022/09/26 02:28:06;;;;;;;;;0.00;0.00;;;;;17.60;52.84;-19679.22;4991761;28;45274;-75
2022/09/26 02:30:32;;;;;;;;;0.00;0.00;;;;;17.65;52.94;-19680.41;4986640;27;45461;-75
2022/09/26 02:32:57;;;;;;;;;0.00;0.00;;;;;17.59;52.90;-19678.81;4993966;28;45220;-76
2022/09/26 02:38:07;;;;;;;;;1.00;1.00;;;;;17.62;52.98;-19679.63;4976120;28;45303;-76
2022/09/26 02:40:55;;;;;;;;;0.00;0.00;;;;;17.52;53.02;-19677.06;4992765;28;46202;-76
2022/09/26 02:43:46;;;;;;;;;0.00;0.00;;;;;17.54;53.27;-19677.63;4992829;28;45403;-76
2022/09/26 02:46:50;;;;;;;;;0.00;0.00;;;;;17.52;53.45;-19677.22;4993303;28;45383;-77
2022/09/26 02:49:52;;;;;;;;;0.67;0.00;;;;;17.50;53.33;-19676.53;4992481;28;45551;-77
2022/09/26 02:52:35;;;;;;;;;0.00;0.00;;;;;17.51;53.29;-19676.81;4993317;28;46464;-78
2022/09/26 02:55:09;;;;;;;;;1.33;0.00;;;;;17.49;53.30;-19676.28;4992806;28;45484;-77
2022/09/26 02:58:04;;;;;;;;;0.00;0.00;;;;;17.46;53.66;-19675.47;4991829;28;45448;-77
2022/09/26 03:00:52;;;;;;;;;0.00;0.00;;;;;17.46;53.60;-19675.47;4990967;27;45465;-78
2022/09/26 03:03:25;;;;;;;;;1.00;0.67;;;;;17.45;53.42;-19675.22;4992632;28;45348;-78
2022/09/26 03:05:55;;;;;;;;;1.00;1.00;;;;;17.40;53.89;-19674.00;4992835;28;45488;-77
2022/09/26 03:08:28;;;;;;;;;0.00;0.00;;;;;17.34;53.16;-19672.41;4996917;28;45388;-78
2022/09/26 03:10:58;;;;;;;;;1.00;1.00;;;;;17.45;53.60;-19675.34;4996119;27;45358;-77
2022/09/26 03:13:26;;;;;;;;;0.00;0.00;;;;;17.33;53.55;-19672.13;4996566;28;47091;-78
2022/09/26 03:15:54;;;;;;;;;0.00;0.00;;;;;17.40;53.61;-19673.88;4994847;27;45448;-77
2022/09/26 03:18:25;;;;;;;;;2.67;1.00;;;;;17.31;53.83;-19671.59;4995032;28;45358;-77
2022/09/26 03:20:53;;;;;;;;;0.00;0.00;;;;;17.36;53.67;-19672.78;4993833;28;45627;-77
2022/09/26 03:23:22;;;;;;;;;0.67;0.00;;;;;17.42;53.76;-19674.53;4994074;27;45354;-78
2022/09/26 03:25:58;;;;;;;;;0.33;0.33;;;;;17.40;53.66;-19673.88;4994022;28;45303;-78
2022/09/26 03:28:23;;;;;;;;;0.00;0.00;;;;;17.40;53.60;-19674.00;4978831;28;45728;-77
2022/09/26 03:30:48;;;;;;;;;1.33;0.00;;;;;17.39;53.70;-19673.59;4995344;28;45358;-77
2022/09/26 03:33:14;;;;;;;;;0.00;0.00;;;;;17.36;53.64;-19672.94;4995465;27;45395;-77
2022/09/26 03:35:39;;;;;;;;;0.00;0.00;;;;;17.34;53.75;-19672.41;4992874;28;45447;-77
2022/09/26 03:38:04;;;;;;;;;0.00;0.00;;;;;17.32;53.43;-19671.84;4995201;28;45451;-77
2022/09/26 03:40:30;;;;;;;;;0.67;0.67;;;;;17.25;53.64;-19670.13;4995688;28;45432;-76
2022/09/26 03:42:55;;;;;;;;;0.00;0.00;;;;;17.36;53.43;-19672.78;4996026;28;45396;-77
2022/09/26 03:45:20;;;;;;;;;0.00;0.00;;;;;17.34;53.49;-19672.25;4977227;28;45461;-78
2022/09/26 03:47:46;;;;;;;;;0.00;0.00;;;;;17.34;53.41;-19672.41;4993665;28;45380;-75
2022/09/26 03:50:13;;;;;;;;;1.00;1.00;;;;;17.34;53.47;-19672.25;4994874;28;45495;-76
2022/09/26 03:52:39;;;;;;;;;1.33;0.00;;;;;17.30;52.97;-19671.47;4995226;28;45350;-76
2022/09/26 03:55:04;;;;;;;;;0.00;0.00;;;;;17.32;53.32;-19671.84;4996417;28;45489;-75
2022/09/26 03:57:30;;;;;;;;;0.00;0.00;;;;;17.28;53.04;-19670.94;4996286;28;45276;-75
2022/09/26 03:59:55;;;;;;;;;0.00;0.00;;;;;17.30;53.40;-19671.47;4996076;28;45966;-75
2022/09/26 04:02:21;;;;;;;;;0.00;0.00;;;;;17.30;53.58;-19671.31;4995825;28;47112;-76
2022/09/26 04:04:46;;;;;;;;;0.00;0.00;;;;;17.29;53.10;-19671.19;4978331;28;45319;-75
2022/09/26 04:07:12;;;;;;;;;1.00;1.00;;;;;17.28;53.42;-19670.94;4996026;28;45960;-76
2022/09/26 04:09:37;;;;;;;;;0.00;0.00;;;;;17.10;52.99;-19666.09;4978654;28;45390;-75
2022/09/26 04:12:02;;;;;;;;;2.00;0.00;;;;;17.27;53.07;-19670.66;4995418;28;45828;-76
2022/09/26 04:14:28;;;;;;;;;0.00;0.00;;;;;17.26;52.73;-19670.25;4975980;28;45417;-76
2022/09/26 04:16:54;;;;;;;;;0.00;0.00;;;;;17.23;52.70;-19669.59;4989990;28;45443;-76
2022/09/26 04:19:19;;;;;;;;;1.00;0.00;;;;;17.21;53.13;-19669.06;4993345;28;45606;-76
2022/09/26 04:21:44;;;;;;;;;0.00;0.00;;;;;17.20;52.99;-19668.66;4959136;28;47743;-76
2022/09/26 04:24:15;;;;;;;;;0.00;0.00;;;;;17.21;53.92;-19669.06;4992646;28;45567;-76
2022/09/26 04:26:42;;;;;;;;;0.00;0.00;;;;;17.23;53.99;-19669.59;4988299;28;45353;-75
2022/09/26 04:29:07;;;;;;;;;1.00;0.00;;;;;17.24;53.75;-19669.72;4994071;28;45345;-75
2022/09/26 04:31:35;;;;;;;;;0.00;0.00;;;;;17.14;53.09;-19667.03;4991347;28;45923;-75
2022/09/26 04:34:01;;;;;;;;;1.33;0.00;;;;;17.20;53.28;-19668.78;4992461;28;45967;-75
2022/09/26 04:36:26;;;;;;;;;0.00;0.00;;;;;17.18;53.23;-19668.13;4994652;28;45507;-76
2022/09/26 04:38:51;;;;;;;;;2.00;0.00;;;;;17.19;52.98;-19668.50;4973031;28;45614;-75
2022/09/26 04:41:20;;;;;;;;;0.00;0.00;;;;;17.20;52.90;-19668.66;4990792;27;45417;-76
2022/09/26 04:43:46;;;;;;;;;0.00;0.00;;;;;17.15;52.79;-19667.44;4987926;28;45472;-76
2022/09/26 04:46:17;;;;;;;;;0.00;0.00;;;;;17.10;52.59;-19666.09;4994554;27;46068;-77
2022/09/26 04:48:43;;;;;;;;;0.00;0.00;;;;;17.10;52.90;-19666.09;4984649;28;45487;-76
2022/09/26 04:51:13;;;;;;;;;0.00;0.00;;;;;17.01;52.71;-19663.69;4995359;28;45369;-77
2022/09/26 04:53:40;;;;;;;;;0.00;0.00;;;;;17.13;52.22;-19666.91;4995182;28;45302;-77
2022/09/26 04:56:08;;;;;;;;;0.00;0.00;;;;;17.15;52.43;-19667.31;4995384;28;45349;-77
2022/09/26 04:58:37;;;;;;;;;0.00;0.00;;;;;17.16;52.26;-19667.56;4995272;28;45465;-76
2022/09/26 05:01:11;;;;;;;;;0.33;0.33;;;;;17.15;52.46;-19667.44;4989813;28;46256;-78
2022/09/26 05:03:37;;;;;;;;;0.00;0.00;;;;;17.10;52.06;-19666.09;4988342;28;45437;-77
2022/09/26 05:06:06;;;;;;;;;1.33;0.00;;;;;17.10;52.04;-19666.09;4993906;28;45457;-77
2022/09/26 05:08:31;;;;;;;;;0.33;0.33;;;;;16.99;51.85;-19663.28;4992830;28;45482;-78
2022/09/26 05:10:57;;;;;;;;;0.00;0.00;;;;;17.14;52.11;-19667.03;5004867;28;45500;-77
2022/09/26 05:13:23;;;;;;;;;0.00;0.00;;;;;17.15;52.11;-19667.44;4993605;27;45535;-78
2022/09/26 05:15:52;;;;;;;;;0.00;0.00;;;;;17.00;51.69;-19663.44;4972779;28;46308;-77
2022/09/26 05:18:18;;;;;;;;;0.00;0.00;;;;;17.09;51.45;-19665.97;4990198;28;45339;-76
2022/09/26 05:20:47;;;;;;;;;0.00;0.00;;;;;17.10;51.92;-19666.09;4988815;27;46404;-76
2022/09/26 05:26:18;;;;;;;;;0.67;0.67;;;;;17.12;51.70;-19666.50;4990703;28;45520;-77
2022/09/26 05:26:18;;;;;;;;;0.00;0.00;;;;;17.15;51.51;-19667.31;4990385;28;45505;-76
2022/09/26 05:28:45;;;;;;;;;0.00;0.00;;;;;17.15;51.72;-19667.44;4988137;28;45326;-76
2022/09/26 05:31:10;;;;;;;;;0.00;0.00;;;;;17.18;51.81;-19668.13;4974202;28;46128;-75
2022/09/26 05:33:37;;;;;;;;;0.00;0.00;;;;;17.07;51.76;-19665.31;4972430;28;45532;-76
2022/09/26 05:36:03;;;;;;;;;0.33;0.00;;;;;17.21;51.96;-19668.91;4990509;28;45535;-76
2022/09/26 05:38:28;;;;;;;;;0.67;0.00;;;;;17.16;51.89;-19667.72;4957811;28;45541;-75
2022/09/26 05:40:57;;;;;;;;;0.00;0.00;;;;;17.24;51.88;-19669.72;4982116;28;47143;-75
2022/09/26 05:43:26;;;;;;;;;0.00;0.00;;;;;17.22;51.98;-19669.19;4987359;28;45452;-75
2022/09/26 05:46:03;;;;;;;;;0.00;0.00;;;;;17.22;52.16;-19669.19;4989461;28;46097;-76
2022/09/26 05:48:31;;;;;;;;;1.00;0.00;;;;;17.24;52.07;-19669.72;4989407;28;45554;-76
2022/09/26 05:51:04;;;;;;;;;0.00;0.00;;;;;17.19;52.06;-19668.50;4987543;28;45941;-76
2022/09/26 05:53:31;;;;;;;;;0.00;0.00;;;;;17.19;51.78;-19668.38;4984803;28;45550;-75
2022/09/26 05:55:57;;;;;;;;;0.00;0.00;;;;;17.21;52.17;-19669.06;4965542;28;45828;-75
2022/09/26 05:58:22;;;;;;;;;0.00;0.00;;;;;17.22;52.33;-19669.31;4980448;28;45662;-74
2022/09/26 06:00:48;;;;;;;;;0.00;0.00;;;;;17.23;52.63;-19669.59;4985886;28;46294;-76
2022/09/26 06:03:14;;;;;;;;;2.00;0.00;;;;;17.22;52.51;-19669.19;4987826;28;45556;-75
2022/09/26 06:05:41;;;;;;;;;0.00;0.00;;;;;17.13;52.25;-19666.78;4989584;28;45713;-77
2022/09/26 06:08:08;;;;;;;;;4.33;2.00;;;;;17.13;52.34;-19666.91;4989201;28;45282;-76
2022/09/26 06:10:34;;;;;;;;;1.67;1.67;;;;;17.16;52.34;-19667.56;4984683;28;45678;-75
2022/09/26 06:13:01;;;;;;;;;1.00;1.00;;;;;17.10;52.50;-19666.09;4986276;28;45491;-76
2022/09/26 06:15:28;;;;;;;;;0.00;0.00;;;;;17.06;52.82;-19665.03;4987577;28;45432;-74
2022/09/26 06:18:05;;;;;;;;;0.00;0.00;;;;;17.00;52.91;-19663.56;4991737;28;45496;-75
2022/09/26 06:20:32;;;;;;;;;0.00;0.00;;;;;17.01;52.66;-19663.69;4986647;28;45436;-75
2022/09/26 06:22:59;;;;;;;;;0.00;0.00;;;;;16.87;52.73;-19660.22;4966295;28;45338;-74
2022/09/26 06:25:24;;;;;;;;;2.00;0.00;;;;;16.97;52.77;-19662.63;4980489;28;45412;-75
2022/09/26 06:27:54;;;;;;;;;0.00;0.00;;;;;16.99;53.31;-19663.16;4987174;28;45759;-80
2022/09/26 06:30:20;;;;;;;;;0.00;0.00;;;;;17.00;52.92;-19663.56;4985986;28;46073;-79
2022/09/26 06:32:46;;;;;;;;;1.00;1.00;;;;;16.87;52.81;-19660.22;4983022;28;45444;-80
2022/09/26 06:35:12;;;;;;;;;2.00;0.33;;;;;16.88;52.90;-19660.47;4984253;28;45428;-79
2022/09/26 06:37:37;;;;;;;;;2.67;1.00;;;;;16.92;52.88;-19661.28;4984579;28;45550;-83
2022/09/26 06:40:03;;;;;;;;;1.00;1.00;;;;;16.94;52.79;-19661.94;4987124;28;45726;-78
2022/09/26 06:42:36;;;;;;;;;0.00;0.00;;;;;16.81;52.99;-19658.47;4986195;28;45812;-78
2022/09/26 06:45:05;;;;;;;;;0.00;0.00;;;;;16.97;53.31;-19662.63;4986267;28;45397;-78
2022/09/26 06:47:31;;;;;;;;;0.00;0.00;;;;;17.00;53.29;-19663.56;4992511;28;45544;-79
2022/09/26 06:49:56;;;;;;;;;2.33;0.00;;;;;17.05;53.22;-19664.91;4993532;28;45535;-81
2022/09/26 06:52:21;;;;;;;;;0.00;0.00;;;;;17.05;52.96;-19664.78;4993856;28;45405;-79
2022/09/26 06:54:47;;;;;;;;;1.00;1.00;;;;;17.03;53.41;-19664.22;4993961;28;45301;-82
2022/09/26 06:57:13;;;;;;;;;0.00;0.00;;;;;17.18;53.01;-19668.13;4994687;28;45255;-79
2022/09/26 06:59:38;;;;;;;;;1.00;1.00;;;;;17.16;52.63;-19667.72;4994359;28;47179;-78
2022/09/26 07:02:05;;;;;;;;;0.67;0.67;;;;;17.17;52.67;-19667.97;4994277;28;45367;-79
2022/09/26 07:04:30;;;;;;;;;0.00;0.00;;;;;17.11;52.66;-19666.38;4994242;28;45464;-79
2022/09/26 07:06:58;;;;;;;;;0.67;0.67;;;;;17.20;52.92;-19668.66;4994273;28;45354;-80
2022/09/26 07:09:26;;;;;;;;;0.00;0.00;;;;;17.21;52.56;-19668.91;4994239;28;45571;-81
2022/09/26 07:11:51;;;;;;;;;0.00;0.00;;;;;17.21;52.78;-19668.91;4993821;28;45481;-78
2022/09/26 07:14:17;;;;;;;;;0.00;0.00;;;;;17.21;52.61;-19668.91;4994384;28;45695;-79
2022/09/26 07:16:43;;;;;;;;;1.00;1.00;;;;;17.26;53.06;-19670.25;4994622;28;45327;-77
2022/09/26 07:19:10;;;;;;;;;1.00;1.00;;;;;17.13;52.35;-19666.91;4993952;28;46374;-78
2022/09/26 07:21:36;;;;;;;;;0.00;0.00;;;;;17.19;53.12;-19668.50;4993778;28;45370;-81
2022/09/26 07:24:01;;;;;;;;;0.00;0.00;;;;;17.11;52.98;-19666.38;4994101;28;45429;-87
2022/09/26 07:26:27;;;;;;;;;0.00;0.00;;;;;17.24;52.82;-19669.72;4994701;28;45235;-82
2022/09/26 07:28:52;;;;;;;;;1.00;1.00;;;;;17.26;52.50;-19670.38;4976242;28;46923;-81
2022/09/26 07:31:18;;;;;;;;;0.33;0.33;;;;;17.27;52.84;-19670.53;4994038;28;45763;-77
2022/09/26 07:33:43;;;;;;;;;0.00;0.00;;;;;17.25;52.67;-19670.13;4993763;28;45369;-79
2022/09/26 07:36:09;;;;;;;;;0.00;0.00;;;;;17.26;52.71;-19670.38;4994366;28;45705;-80
2022/09/26 07:38:35;;;;;;;;;0.00;0.00;;;;;17.20;53.11;-19668.66;4993645;28;45472;-75
2022/09/26 07:41:00;;;;;;;;;3.00;0.33;;;;;17.25;53.08;-19669.97;4993736;28;45293;-79
2022/09/26 07:43:25;;;;;;;;;2.00;0.00;;;;;17.12;53.06;-19666.63;4976214;28;45344;-79
2022/09/26 07:51:19;;;;;;;;;0.00;0.00;;;;;17.24;52.63;-19669.84;4993854;28;45291;-75
2022/09/26 07:53:45;;;;;;;;;0.00;0.00;;;;;17.27;52.90;-19670.53;4996881;28;45332;-77
2022/09/26 07:56:11;;;;;;;;;0.00;0.00;;;;;17.28;53.10;-19670.94;4997222;28;45333;-72
2022/09/26 07:58:42;;;;;;;;;0.67;0.67;;;;;17.44;52.81;-19674.94;4996598;28;45336;-76
2022/09/26 08:01:10;;;;;;;;;1.00;1.00;;;;;17.46;52.60;-19675.47;4996624;28;45408;-73
2022/09/26 08:03:44;;;;;;;;;0.00;0.00;;;;;17.47;52.61;-19675.75;4978983;28;45459;-74
2022/09/26 08:06:16;;;;;;;;;1.33;1.00;;;;;17.43;52.51;-19674.81;4996816;28;45492;-74
2022/09/26 08:08:41;;;;;;;;;0.00;0.00;;;;;17.43;52.35;-19674.66;4996765;28;46176;-74
2022/09/26 08:11:16;;;;;;;;;0.00;0.00;;;;;17.45;52.41;-19675.22;4978577;28;45328;-74
2022/09/26 08:13:42;;;;;;;;;0.67;0.00;;;;;17.37;52.19;-19673.06;4996762;28;45177;-74
2022/09/26 08:16:08;;;;;;;;;0.00;0.00;;;;;17.52;52.12;-19677.06;4979155;28;45288;-74
2022/09/26 08:18:33;;;;;;;;;6.00;2.67;;;;;17.73;51.79;-19682.56;4996363;28;45231;-74
2022/09/26 08:21:02;;;;;;;;;1.00;1.00;;;;;17.79;51.58;-19684.03;4978252;28;45317;-74
2022/09/26 08:23:28;;;;;;;;;0.33;0.00;;;;;17.94;51.28;-19688.06;4996598;28;45392;-74
2022/09/26 08:25:54;;;;;;;;;0.33;0.33;;;;;18.09;50.86;-19692.06;4995419;28;45478;-74
2022/09/26 08:28:19;;;;;;;;;0.00;0.00;;;;;18.16;50.93;-19693.66;4995994;28;45377;-74
2022/09/26 08:30:45;;;;;;;;;2.00;1.00;;;;;18.16;50.47;-19693.81;4996377;28;45389;-74
2022/09/26 08:33:11;;;;;;;;;0.00;0.00;;;;;18.15;50.53;-19693.53;4996216;28;45417;-74
2022/09/26 08:35:40;;;;;;;;;2.00;1.00;;;;;18.21;50.26;-19695.00;4996312;28;45364;-74
2022/09/26 08:38:07;;;;;;;;;0.00;0.00;;;;;18.23;49.96;-19695.53;4996083;28;45452;-74
2022/09/26 08:40:59;;;;;;;;;0.00;0.00;;;;;18.21;49.79;-19695.13;4995969;28;45460;-74
2022/09/26 08:43:51;;;;;;;;;4.00;2.00;;;;;18.38;50.10;-19699.41;4981341;28;45361;-73
2022/09/26 08:46:42;;;;;;;;;0.00;0.00;;;;;18.43;49.61;-19700.88;4997373;28;45439;-74
2022/09/26 08:49:24;;;;;;;;;0.00;0.00;;;;;18.40;49.42;-19700.09;4995838;28;46461;-75
2022/09/26 08:51:56;;;;;;;;;0.00;0.00;;;;;18.43;49.35;-19700.75;4994637;28;45726;-74
2022/09/26 08:54:36;;;;;;;;;0.00;0.00;;;;;18.43;49.16;-19700.88;4996265;28;45303;-75
2022/09/26 08:57:15;;;;;;;;;1.00;0.00;;;;;18.49;49.19;-19702.34;4996514;28;45400;-74
2022/09/26 08:59:44;;;;;;;;;0.00;0.00;;;;;18.48;49.33;-19702.22;4995910;28;45377;-76
2022/09/26 09:02:29;;;;;;;;;1.00;1.00;;;;;18.57;49.39;-19704.50;4995435;28;45397;-75
2022/09/26 09:05:03;;;;;;;;;2.00;0.00;;;;;18.67;48.96;-19707.16;4996095;28;45386;-75
2022/09/26 09:07:29;;;;;;;;;0.00;0.00;;;;;18.76;48.76;-19709.56;4996305;28;45259;-74
2022/09/26 09:10:00;;;;;;;;;0.33;0.33;;;;;18.87;48.56;-19712.25;4977853;28;47227;-75
2022/09/26 09:12:38;;;;;;;;;0.00;0.00;;;;;18.83;48.50;-19711.31;4995987;28;45418;-75
2022/09/26 09:15:34;;;;;;;;;0.00;0.00;;;;;18.84;48.75;-19711.44;4995973;28;45226;-76
2022/09/26 09:18:33;;;;;;;;;1.00;1.00;;;;;18.79;48.45;-19710.25;4995967;28;45608;-75
2022/09/26 09:21:25;;;;;;;;;1.67;1.00;;;;;18.74;48.81;-19709.03;4995598;28;45493;-74
2022/09/26 09:24:10;;;;;;;;;1.00;0.00;;;;;18.70;48.24;-19707.97;4995596;28;45365;-75
2022/09/26 09:27:00;;;;;;;;;0.67;0.00;;;;;18.54;48.33;-19703.81;4994475;28;45547;-75
2022/09/26 09:29:47;;;;;;;;;0.00;0.00;;;;;18.58;48.48;-19704.75;4996274;28;45346;-75
2022/09/26 09:32:18;;;;;;;;;1.00;1.00;;;;;18.66;48.73;-19706.91;4995314;28;45972;-74
2022/09/26 09:34:46;;;;;;;;;1.00;1.00;;;;;18.71;48.74;-19708.22;4995657;28;45370;-76
2022/09/26 09:37:17;;;;;;;;;4.33;1.00;;;;;18.71;47.63;-19708.22;4978044;28;45453;-74
2022/09/26 09:39:46;;;;;;;;;0.00;0.00;;;;;18.79;48.16;-19710.25;4994264;28;45428;-75
2022/09/26 09:42:20;;;;;;;;;0.00;0.00;;;;;18.81;47.92;-19710.66;4995483;28;45285;-75
2022/09/26 09:44:58;;;;;;;;;0.00;0.00;;;;;18.81;48.24;-19710.66;4995379;28;46108;-74
2022/09/26 09:47:28;;;;;;;;;0.00;0.00;;;;;18.86;48.13;-19711.97;4995604;28;45408;-74
2022/09/26 09:49:55;;;;;;;;;0.00;0.00;;;;;18.81;47.86;-19710.78;4977458;28;45585;-75
2022/09/26 09:52:31;;;;;;;;;0.33;0.33;;;;;18.89;47.73;-19712.78;4995348;28;45515;-75
2022/09/26 09:55:19;;;;;;;;;1.00;1.00;;;;;18.70;47.47;-19707.97;4995182;28;45337;-75
2022/09/26 09:58:16;;;;;;;;;0.67;0.67;;;;;18.64;47.51;-19706.38;4995376;28;45397;-76
2022/09/26 10:00:51;;;;;;;;;0.00;0.00;;;;;18.63;47.90;-19706.09;4995386;28;45387;-75
2022/09/26 10:03:32;;;;;;;;;0.33;0.33;;;;;18.70;48.32;-19707.84;4994998;28;46215;-74
2022/09/26 10:06:00;;;;;;;;;2.67;0.00;;;;;18.71;48.51;-19708.22;4995208;28;45227;-75
2022/09/26 10:08:35;;;;;;;;;0.00;0.00;;;;;18.62;48.07;-19705.81;4977474;28;45408;-75
2022/09/26 10:11:08;;;;;;;;;0.00;0.00;;;;;18.61;48.79;-19705.44;4995347;28;45352;-76
2022/09/26 10:13:35;;;;;;;;;2.00;0.33;;;;;18.60;49.47;-19705.28;4994761;28;46373;-76
2022/09/26 10:16:04;;;;;;;;;1.00;0.00;;;;;18.58;50.12;-19704.63;4994130;28;45422;-75
2022/09/26 10:18:30;;;;;;;;;0.00;0.00;;;;;18.54;50.07;-19703.81;4995212;28;45292;-75
2022/09/26 10:21:05;;;;;;;;;0.00;0.00;;;;;18.51;49.61;-19703.03;4995145;28;45487;-74
2022/09/26 10:23:35;;;;;;;;;2.33;0.00;;;;;18.52;49.55;-19703.16;4994871;28;46706;-76
2022/09/26 10:26:04;;;;;;;;;0.00;0.00;;;;;18.56;49.83;-19704.22;4977376;28;45394;-75
2022/09/26 10:28:55;;;;;;;;;0.00;0.00;;;;;18.54;49.48;-19703.81;4995178;28;45441;-75
2022/09/26 10:31:33;;;;;;;;;0.00;0.00;;;;;18.54;50.36;-19703.69;4994970;28;45477;-76
2022/09/26 10:34:02;;;;;;;;;0.00;0.00;;;;;18.61;52.96;-19705.56;4994608;28;45373;-76
2022/09/26 10:36:31;;;;;;;;;2.00;1.00;;;;;18.62;53.79;5105.59;4977365;28;45472;-75
2022/09/26 10:41:46;;;;;;;;;1.00;1.00;;;;;18.42;55.54;89318.03;4994983;28;45290;-75
2022/09/26 10:44:21;;;;;;;;;3.00;0.00;;;;;18.40;56.52;149246.84;4994539;28;46623;-73
2022/09/26 10:46:50;;;;;;;;;0.00;0.00;;;;;18.18;57.79;154986.28;4994678;28;45351;-74
2022/09/26 10:49:17;;;;;;;;;0.00;0.00;;;;;18.19;57.95;153399.63;4994772;28;45446;-74
2022/09/26 10:51:54;;;;;;;;;0.33;0.33;;;;;18.14;58.74;154061.47;4995170;28;45317;-75
2022/09/26 10:54:32;;;;;;;;;0.00;0.00;;;;;18.05;58.55;151332.31;5062119;28;48268;-72
2022/09/26 10:56:58;;;;;;;;;1.00;0.33;;;;;18.08;58.51;149063.22;4994285;28;45233;-73
2022/09/26 10:59:31;;;;;;;;;0.67;0.67;;;;;18.03;59.58;149772.38;4994238;28;45310;-73
2022/09/26 11:01:58;;;;;;;;;1.00;1.00;;;;;17.87;60.68;152023.00;4994722;28;45356;-73
2022/09/26 11:07:34;;;;;;;;;1.00;1.00;;;;;17.62;61.59;152025.06;4994356;28;45341;-73
2022/09/26 11:10:09;;;;;;;;;4.00;1.67;;;;;17.55;61.98;153936.78;4994380;28;45370;-73
2022/09/26 11:12:38;;;;;;;;;0.00;0.00;;;;;17.45;62.63;151398.56;4994415;28;45353;-74
2022/09/26 11:15:12;;;;;;;;;0.00;0.00;;;;;17.57;62.08;146993.78;4993940;28;46198;-73
2022/09/26 11:17:46;;;;;;;;;0.00;0.00;;;;;17.54;62.29;148252.66;4994012;28;45420;-74
2022/09/26 11:20:18;;;;;;;;;1.00;1.00;;;;;17.51;62.90;147364.38;4994318;28;45354;-73
2022/09/26 11:23:01;;;;;;;;;0.00;0.00;;;;;17.45;62.80;147288.09;4994395;28;45508;-73
2022/09/26 11:25:31;;;;;;;;;0.00;0.00;;;;;17.43;64.49;147959.00;4994760;28;45405;-73
2022/09/26 11:28:07;;;;;;;;;1.00;1.00;;;;;17.37;64.96;145926.09;4991779;28;45525;-73
2022/09/26 11:30:38;;;;;;;;;0.00;0.00;;;;;17.35;64.13;144134.50;4983585;28;45672;-73
2022/09/26 11:33:12;;;;;;;;;2.33;1.00;;;;;17.34;64.84;143937.50;4995049;28;45303;-73
2022/09/26 11:35:42;;;;;;;;;1.00;1.00;;;;;17.26;66.43;144500.25;4977309;28;46724;-73
2022/09/26 11:38:14;;;;;;;;;1.00;1.00;;;;;17.19;66.83;141834.97;4994982;28;45600;-75
2022/09/26 11:41:01;;;;;;;;;2.00;0.00;;;;;17.15;68.43;139564.00;4995755;28;45436;-73
2022/09/26 11:44:19;;;;;;;;;0.67;0.67;;;;;17.15;69.00;137521.00;4996526;28;45385;-73
2022/09/26 11:47:23;;;;;;;;;0.33;0.00;;;;;17.07;68.84;135193.22;4954113;28;46590;-77
2022/09/26 11:50:10;;;;;;;;;1.00;1.00;;;;;16.88;71.63;131935.81;4989742;28;45570;-73
2022/09/26 11:52:56;;;;;;;;;1.00;1.00;;;;;16.73;72.37;129009.19;4992848;28;45431;-76
2022/09/26 11:55:36;;;;;;;;;0.67;0.67;;;;;16.62;72.20;126480.34;4988990;28;45546;-75
2022/09/26 11:58:38;;;;;;;;;1.00;1.00;;;;;16.58;71.95;126422.97;4967815;28;45928;-74